createdAt,value
2022-09-01T00:01:25.386Z,96977.81
2022-09-01T00:04:27.086Z,96968.09
2022-09-01T00:07:26.330Z,96970.19
2022-09-01T00:10:23.258Z,96975.31
2022-09-01T00:13:20.109Z,96970.88
2022-09-01T00:16:19.814Z,96979.78
2022-09-01T00:19:16.702Z,96979.09
2022-09-01T00:22:13.653Z,96980.88
2022-09-01T00:25:10.638Z,96977.88
2022-09-01T00:28:07.482Z,96976.94
2022-09-01T00:31:07.005Z,96984.38
2022-09-01T00:34:04.960Z,96979.47
2022-09-01T00:37:01.798Z,96984.84
2022-09-01T00:39:58.654Z,96978.06
2022-09-01T00:42:55.832Z,96973.59
2022-09-01T00:45:52.830Z,96978.38
2022-09-01T00:49:31.387Z,96981.88
2022-09-01T00:52:38.718Z,96982.47
2022-09-01T00:55:38.441Z,96975.66
2022-09-01T00:58:37.549Z,96973.56
2022-09-01T01:01:37.654Z,96972.16
2022-09-01T01:04:34.548Z,96979.44
2022-09-01T01:07:40.058Z,96979.88
2022-09-01T01:10:41.980Z,96972.25
2022-09-01T01:13:55.941Z,96970.84
2022-09-01T01:16:54.678Z,96968.53
2022-09-01T01:20:15.774Z,96969.56
2022-09-01T01:23:31.035Z,96967.09
2022-09-01T01:26:28.524Z,96968.75
2022-09-01T01:29:31.855Z,96971.44
2022-09-01T01:32:29.391Z,96973.97
2022-09-01T01:35:26.872Z,96961.91
2022-09-01T01:38:25.458Z,96965.78
2022-09-01T01:41:24.204Z,96966.88
2022-09-01T01:44:27.925Z,96965.00
2022-09-01T01:47:25.411Z,96965.78
2022-09-01T01:50:35.674Z,96966.38
2022-09-01T01:53:33.813Z,96966.59
2022-09-01T01:56:31.200Z,96967.56
2022-09-01T01:59:29.626Z,96968.28
2022-09-01T02:02:26.579Z,96973.81
2022-09-01T02:05:28.729Z,96980.91
2022-09-01T02:08:26.809Z,96975.75
2022-09-01T02:11:26.201Z,96978.84
2022-09-01T02:14:23.869Z,96971.38
2022-09-01T02:17:21.675Z,96971.69
2022-09-01T02:20:18.523Z,96984.59
2022-09-01T02:23:18.012Z,96971.00
2022-09-01T02:26:19.078Z,96978.38
2022-09-01T02:29:21.934Z,96972.81
2022-09-01T02:32:21.948Z,96969.31
2022-09-01T02:35:19.099Z,96971.97
2022-09-01T02:38:17.945Z,96968.88
2022-09-01T02:41:20.021Z,96969.59
2022-09-01T02:44:22.087Z,96965.69
2022-09-01T02:47:18.921Z,96965.97
2022-09-01T02:50:18.800Z,96961.41
2022-09-01T02:53:16.312Z,96965.47
2022-09-01T02:56:14.494Z,96959.31
2022-09-01T02:59:13.010Z,96961.72
2022-09-01T03:02:10.345Z,96966.22
2022-09-01T03:05:07.678Z,96961.41
2022-09-01T03:08:10.345Z,96960.94
2022-09-01T03:11:13.028Z,96967.81
2022-09-01T03:14:10.563Z,96963.63
2022-09-01T03:17:07.448Z,96964.09
2022-09-01T03:20:04.674Z,96958.66
2022-09-01T03:23:04.988Z,96964.50
2022-09-01T03:26:02.900Z,96963.94
2022-09-01T03:28:59.744Z,96963.63
2022-09-01T03:31:56.647Z,96963.41
2022-09-01T03:34:53.560Z,96965.25
2022-09-01T03:37:50.987Z,96961.72
2022-09-01T03:40:54.085Z,96963.31
2022-09-01T03:43:55.006Z,96965.19
2022-09-01T03:46:52.710Z,96964.34
2022-09-01T03:49:50.131Z,96963.16
2022-09-01T03:52:53.258Z,96956.44
2022-09-01T03:55:50.433Z,96961.91
2022-09-01T03:58:47.764Z,96959.81
2022-09-01T04:01:45.393Z,96945.34
2022-09-01T04:04:42.269Z,96951.78
2022-09-01T04:07:39.107Z,96951.03
2022-09-01T04:10:49.883Z,96940.16
2022-09-01T04:13:52.770Z,96948.94
2022-09-01T04:17:08.030Z,96952.94
2022-09-01T04:20:08.631Z,96951.13
2022-09-01T04:23:11.218Z,96938.75
2022-09-01T04:26:14.853Z,96942.41
2022-09-01T04:29:12.742Z,96951.59
2022-09-01T04:32:13.009Z,96941.50
2022-09-01T04:35:16.862Z,96951.75
2022-09-01T04:38:16.082Z,96944.38
2022-09-01T04:41:17.611Z,96958.06
2022-09-01T04:44:16.817Z,96935.59
2022-09-01T04:47:17.111Z,96947.50
2022-09-01T04:50:17.199Z,96949.16
2022-09-01T04:53:17.319Z,96945.44
2022-09-01T04:56:19.794Z,96948.59
2022-09-01T04:59:20.367Z,96953.34
2022-09-01T05:02:18.602Z,96950.41
2022-09-01T05:05:15.607Z,96960.25
2022-09-01T05:08:23.165Z,96950.97
2022-09-01T05:11:21.032Z,96950.91
2022-09-01T05:14:19.113Z,96949.41
2022-09-01T05:17:17.679Z,96948.28
2022-09-01T05:20:15.040Z,96953.94
2022-09-01T05:23:13.255Z,96944.59
2022-09-01T05:26:31.439Z,96948.00
2022-09-01T05:29:29.654Z,96959.34
2022-09-01T05:32:27.513Z,96953.97
2022-09-01T05:35:32.470Z,96954.28
2022-09-01T05:38:31.314Z,96951.16
2022-09-01T05:41:29.535Z,96947.88
2022-09-01T05:44:26.379Z,96947.91
2022-09-01T05:47:23.508Z,96958.19
2022-09-01T05:50:21.553Z,96946.31
2022-09-01T05:53:18.713Z,96955.41
2022-09-01T05:56:19.993Z,96952.41
2022-09-01T05:59:26.014Z,96955.31
2022-09-01T06:02:27.245Z,96953.66
2022-09-01T06:05:26.933Z,96957.56
2022-09-01T06:08:25.373Z,96953.13
2022-09-01T06:11:24.853Z,96960.41
2022-09-01T06:14:21.767Z,96949.06
2022-09-01T06:17:24.606Z,96946.19
2022-09-01T06:20:22.894Z,96950.63
2022-09-01T06:23:19.845Z,96948.25
2022-09-01T06:26:46.782Z,96946.19
2022-09-01T06:29:44.638Z,96950.66
2022-09-01T06:32:44.109Z,96951.13
2022-09-01T06:35:44.726Z,96945.22
2022-09-01T06:38:42.654Z,96961.72
2022-09-01T06:41:39.599Z,96958.69
2022-09-01T06:44:40.688Z,96963.75
2022-09-01T06:47:37.987Z,96958.97
2022-09-01T06:53:59.277Z,96956.59
2022-09-01T06:56:57.537Z,96961.81
2022-09-01T06:59:54.652Z,96965.09
2022-09-01T07:02:58.446Z,96957.41
2022-09-01T07:06:01.334Z,96964.31
2022-09-01T07:19:01.266Z,96966.19
2022-09-01T07:22:35.712Z,96973.81
2022-09-01T07:25:17.414Z,96967.25
2022-09-01T07:28:17.548Z,96970.94
2022-09-01T07:34:47.662Z,96966.91
2022-09-01T07:38:47.293Z,96966.06
2022-09-01T07:42:31.257Z,96959.06
2022-09-01T07:44:40.259Z,96958.19
2022-09-01T07:47:53.420Z,96964.50
2022-09-01T07:54:13.836Z,96979.66
2022-09-01T07:57:10.761Z,96974.91
2022-09-01T08:00:09.821Z,96982.81
2022-09-01T08:03:06.883Z,96975.88
2022-09-01T08:06:11.184Z,96988.63
2022-09-01T08:09:11.782Z,96973.47
2022-09-01T08:12:09.124Z,96985.22
2022-09-01T08:15:41.102Z,96990.16
2022-09-01T08:18:25.351Z,96983.03
2022-09-01T08:21:24.583Z,96984.94
2022-09-01T08:24:22.219Z,96974.09
2022-09-01T08:27:19.587Z,96974.22
2022-09-01T08:30:16.540Z,96974.03
2022-09-01T08:33:13.955Z,96980.34
2022-09-01T08:36:13.913Z,96974.13
2022-09-01T08:39:10.747Z,96978.75
2022-09-01T08:42:42.608Z,96979.63
2022-09-01T08:45:58.344Z,96975.91
2022-09-01T08:49:24.683Z,96989.47
2022-09-01T08:52:33.566Z,96972.09
2022-09-01T08:55:44.896Z,96965.94
2022-09-01T08:58:41.896Z,96962.84
2022-09-01T09:02:06.880Z,96967.91
2022-09-01T09:05:50.785Z,96983.25
2022-09-01T09:09:14.235Z,96981.50
2022-09-01T09:12:51.392Z,96973.63
2022-09-01T09:16:08.154Z,96971.06
2022-09-01T09:19:26.362Z,96969.78
2022-09-01T09:22:23.222Z,96975.25
2022-09-01T09:25:20.322Z,96984.72
2022-09-01T09:28:17.222Z,96981.81
2022-09-01T09:31:36.545Z,96984.38
2022-09-01T09:34:33.547Z,96977.38
2022-09-01T09:37:31.599Z,96972.72
2022-09-01T09:40:28.459Z,96970.09
2022-09-01T09:43:29.016Z,96963.09
2022-09-01T09:46:45.846Z,96965.03
2022-09-01T09:49:48.197Z,96959.06
2022-09-01T09:52:48.022Z,96957.06
2022-09-01T09:56:17.018Z,96955.16
2022-09-01T09:59:57.173Z,96955.16
2022-09-01T10:03:19.511Z,96963.69
2022-09-01T10:06:37.852Z,96969.84
2022-09-01T10:09:38.537Z,96956.34
2022-09-01T10:12:35.476Z,96950.81
2022-09-01T10:15:34.165Z,96957.41
2022-09-01T10:18:45.268Z,96952.78
2022-09-01T10:21:45.158Z,96958.03
2022-09-01T10:24:45.883Z,96951.63
2022-09-01T10:27:47.697Z,96954.50
2022-09-01T10:30:47.286Z,96954.41
2022-09-01T10:33:44.662Z,96956.06
2022-09-01T10:36:47.007Z,96953.09
2022-09-01T10:40:20.830Z,96943.22
2022-09-01T10:43:45.176Z,96942.47
2022-09-01T10:46:50.202Z,96942.75
2022-09-01T10:49:47.358Z,96948.88
2022-09-01T10:52:44.157Z,96945.91
2022-09-01T10:56:02.665Z,96952.13
2022-09-01T10:59:44.910Z,96955.03
2022-09-01T11:02:36.943Z,96965.06
2022-09-01T11:06:12.936Z,96959.25
2022-09-01T11:09:39.613Z,96958.03
2022-09-01T11:13:24.583Z,96966.00
2022-09-01T11:17:20.693Z,96965.53
2022-09-01T11:20:29.822Z,96954.53
2022-09-01T11:23:30.541Z,96946.81
2022-09-01T11:26:33.342Z,96950.81
2022-09-01T11:30:09.754Z,96947.06
2022-09-01T11:33:46.375Z,96946.25
2022-09-01T11:36:56.398Z,96961.91
2022-09-01T11:40:01.979Z,96958.97
2022-09-01T11:43:04.454Z,96957.78
2022-09-01T11:46:26.018Z,96964.09
2022-09-01T11:49:37.198Z,96955.44
2022-09-01T11:52:39.137Z,96955.22
2022-09-01T11:55:50.517Z,96947.34
2022-09-01T11:58:47.899Z,96947.78
2022-09-01T12:01:44.965Z,96943.09
2022-09-01T12:04:42.299Z,96950.19
2022-09-01T12:07:45.055Z,96935.06
2022-09-01T12:10:44.997Z,96936.09
2022-09-01T12:13:55.149Z,96940.44
2022-09-01T12:17:04.578Z,96935.25
2022-09-01T12:20:35.753Z,96938.31
2022-09-01T12:23:40.172Z,96936.03
2022-09-01T12:26:38.697Z,96935.59
2022-09-01T12:29:37.512Z,96931.00
2022-09-01T12:32:34.405Z,96923.63
2022-09-01T12:35:32.334Z,96917.28
2022-09-01T12:38:30.852Z,96910.03
2022-09-01T12:41:36.599Z,96902.75
2022-09-01T12:44:39.598Z,96907.88
2022-09-01T12:47:36.748Z,96904.00
2022-09-01T12:50:37.150Z,96909.19
2022-09-01T12:53:36.395Z,96899.84
2022-09-01T12:56:39.033Z,96897.34
2022-09-01T12:59:37.613Z,96899.06
2022-09-01T13:02:38.962Z,96897.59
2022-09-01T13:05:51.782Z,96896.16
2022-09-01T13:08:48.798Z,96893.50
2022-09-01T13:12:06.733Z,96889.22
2022-09-01T13:15:04.615Z,96900.66
2022-09-01T13:18:01.485Z,96892.84
2022-09-01T13:20:59.144Z,96879.38
2022-09-01T13:23:56.111Z,96889.44
2022-09-01T13:30:20.742Z,96871.78
2022-09-01T13:33:28.472Z,96879.72
2022-09-01T13:39:42.200Z,96875.66
2022-09-01T13:42:39.035Z,96875.47
2022-09-01T13:45:36.187Z,96867.69
2022-09-01T13:51:53.838Z,96855.84
2022-09-01T13:54:50.809Z,96856.94
2022-09-01T13:57:49.030Z,96868.38
2022-09-01T14:00:47.775Z,96865.63
2022-09-01T14:03:47.839Z,96859.72
2022-09-01T14:06:46.902Z,96849.53
2022-09-01T14:09:43.745Z,96853.81
2022-09-01T14:12:42.063Z,96852.63
2022-09-01T14:15:40.546Z,96848.19
2022-09-01T14:18:38.633Z,96842.59
2022-09-01T14:21:35.472Z,96847.16
2022-09-01T14:24:38.826Z,96839.06
2022-09-01T14:27:38.564Z,96836.44
2022-09-01T14:30:35.639Z,96850.72
2022-09-01T14:33:32.481Z,96845.44
2022-09-01T14:36:29.568Z,96857.28
2022-09-01T14:39:26.471Z,96864.66
2022-09-01T14:42:25.689Z,96851.41
2022-09-01T14:45:26.491Z,96861.69
2022-09-01T14:48:23.717Z,96861.06
2022-09-01T14:54:46.785Z,96846.66
2022-09-01T14:57:43.609Z,96844.38
2022-09-01T15:00:41.710Z,96848.56
2022-09-01T15:03:38.759Z,96847.41
2022-09-01T15:06:36.192Z,96840.25
2022-09-01T15:09:33.396Z,96842.06
2022-09-01T15:12:31.050Z,96839.50
2022-09-01T15:15:32.387Z,96838.16
2022-09-01T15:18:29.205Z,96835.94
2022-09-01T15:21:32.037Z,96821.78
2022-09-01T15:24:28.890Z,96838.50
2022-09-01T15:27:25.718Z,96837.16
2022-09-01T15:30:22.768Z,96832.19
2022-09-01T15:33:20.720Z,96832.28
2022-09-01T15:36:21.411Z,96830.00
2022-09-01T15:39:18.241Z,96826.91
2022-09-01T15:42:16.728Z,96831.63
2022-09-01T15:45:19.646Z,96821.72
2022-09-01T15:48:16.475Z,96815.56
2022-09-01T15:51:30.854Z,96815.78
2022-09-01T15:54:30.489Z,96816.38
2022-09-01T15:57:27.705Z,96813.00
2022-09-01T16:00:27.069Z,96816.84
2022-09-01T16:03:24.547Z,96811.25
2022-09-01T16:06:23.005Z,96814.78
2022-09-01T16:09:22.631Z,96817.09
2022-09-01T16:12:21.123Z,96811.53
2022-09-01T16:15:22.263Z,96807.41
2022-09-01T16:18:58.887Z,96812.72
2022-09-01T16:22:26.248Z,96824.00
2022-09-01T16:25:34.698Z,96818.97
2022-09-01T16:28:36.283Z,96813.19
2022-09-01T16:31:33.224Z,96821.53
2022-09-01T16:34:32.050Z,96821.50
2022-09-01T16:37:55.978Z,96825.44
2022-09-01T16:41:06.003Z,96833.66
2022-09-01T16:44:09.936Z,96826.69
2022-09-01T16:47:44.304Z,96828.44
2022-09-01T16:51:18.007Z,96836.66
2022-09-01T16:54:24.892Z,96830.56
2022-09-01T16:57:54.099Z,96834.72
2022-09-01T17:01:17.160Z,96826.28
2022-09-01T17:04:36.678Z,96824.97
2022-09-01T17:07:49.384Z,96826.41
2022-09-01T17:11:18.560Z,96827.44
2022-09-01T17:14:27.864Z,96824.66
2022-09-01T17:17:46.133Z,96828.94
2022-09-01T17:21:02.286Z,96834.06
2022-09-01T17:24:12.469Z,96833.81
2022-09-01T17:27:19.934Z,96832.94
2022-09-01T17:30:17.268Z,96835.47
2022-09-01T17:33:52.764Z,96835.47
2022-09-01T17:37:32.615Z,96842.56
2022-09-01T17:41:24.995Z,96859.44
2022-09-01T17:44:37.794Z,96849.03
2022-09-01T17:48:00.531Z,96849.91
2022-09-01T17:51:42.045Z,96855.22
2022-09-01T17:55:09.342Z,96859.16
2022-09-01T17:58:34.350Z,96853.88
2022-09-01T18:02:19.449Z,96859.47
2022-09-01T18:05:24.449Z,96855.66
2022-09-01T18:08:38.786Z,96876.06
2022-09-01T18:11:59.869Z,96871.00
2022-09-01T18:15:20.512Z,96872.34
2022-09-01T18:18:30.953Z,96874.34
2022-09-01T18:21:37.279Z,96873.75
2022-09-01T18:25:16.637Z,96887.69
2022-09-01T18:28:15.316Z,96880.72
2022-09-01T18:31:29.402Z,96888.38
2022-09-01T18:35:11.666Z,96879.47
2022-09-01T18:38:26.144Z,96893.31
2022-09-01T18:41:44.738Z,96887.53
2022-09-01T18:45:25.378Z,96887.75
2022-09-01T18:49:03.056Z,96892.31
2022-09-01T18:52:09.105Z,96898.41
2022-09-01T18:55:28.703Z,96889.41
2022-09-01T18:58:38.489Z,96897.47
2022-09-01T19:01:44.584Z,96899.53
2022-09-01T19:04:44.020Z,96896.97
2022-09-01T19:08:10.295Z,96903.94
2022-09-01T19:11:45.466Z,96904.63
2022-09-01T19:15:25.686Z,96903.53
2022-09-01T19:19:14.821Z,96909.19
2022-09-01T19:22:27.363Z,96913.41
2022-09-01T19:25:36.377Z,96907.41
2022-09-01T19:29:09.894Z,96921.19
2022-09-01T19:32:18.041Z,96920.88
2022-09-01T19:35:17.403Z,96922.66
2022-09-01T19:38:27.461Z,96918.25
2022-09-01T19:41:39.525Z,96919.22
2022-09-01T19:45:06.818Z,96927.63
2022-09-01T19:48:19.334Z,96925.97
2022-09-01T19:51:27.387Z,96929.47
2022-09-01T19:54:42.129Z,96933.94
2022-09-01T19:57:56.426Z,96924.28
2022-09-01T20:01:03.190Z,96919.38
2022-09-01T20:04:14.896Z,96920.16
2022-09-01T20:07:45.878Z,96928.13
2022-09-01T20:11:14.687Z,96934.78
2022-09-01T20:14:39.689Z,96924.78
2022-09-01T20:17:53.133Z,96931.47
2022-09-01T20:20:50.921Z,96925.59
2022-09-01T20:23:59.850Z,96935.09
2022-09-01T20:27:32.053Z,96925.44
2022-09-01T20:30:43.302Z,96929.41
2022-09-01T20:34:01.699Z,96927.63
2022-09-01T20:37:16.876Z,96929.69
2022-09-01T20:40:24.516Z,96930.75
2022-09-01T20:43:27.594Z,96930.00
2022-09-01T20:46:26.360Z,96919.47
2022-09-01T20:49:23.378Z,96918.38
2022-09-01T20:52:55.548Z,96915.91
2022-09-01T20:56:14.085Z,96924.75
2022-09-01T20:59:38.939Z,96921.06
2022-09-01T21:02:35.719Z,96927.50
2022-09-01T21:06:26.017Z,96934.09
2022-09-01T21:10:03.472Z,96935.84
2022-09-01T21:13:37.986Z,96924.94
2022-09-01T21:17:28.120Z,96941.19
2022-09-01T21:20:35.653Z,96930.13
2022-09-01T21:23:32.755Z,96930.63
2022-09-01T21:26:30.513Z,96936.31
2022-09-01T21:29:56.160Z,96925.81
2022-09-01T21:32:53.862Z,96922.84
2022-09-01T21:35:51.564Z,96923.75
2022-09-01T21:38:48.860Z,96923.09
2022-09-01T21:41:46.871Z,96919.81
2022-09-01T21:44:44.853Z,96918.81
2022-09-01T21:47:44.674Z,96914.41
2022-09-01T21:50:42.410Z,96918.28
2022-09-01T21:53:39.248Z,96924.69
2022-09-01T21:56:36.436Z,96916.03
2022-09-01T21:59:33.297Z,96914.03
2022-09-01T22:02:33.018Z,96910.22
2022-09-01T22:05:31.055Z,96915.34
2022-09-01T22:08:28.282Z,96907.50
2022-09-01T22:11:25.114Z,96918.41
2022-09-01T22:14:22.572Z,96911.28
2022-09-01T22:17:19.818Z,96910.34
2022-09-01T22:20:22.365Z,96913.97
2022-09-01T22:23:20.314Z,96918.06
2022-09-01T22:26:31.991Z,96908.56
2022-09-01T22:29:28.840Z,96911.91
2022-09-01T22:32:28.739Z,96915.28
2022-09-01T22:35:28.258Z,96913.78
2022-09-01T22:38:25.164Z,96911.28
2022-09-01T22:41:24.106Z,96905.94
2022-09-01T22:44:21.047Z,96904.47
2022-09-01T22:47:17.908Z,96905.34
2022-09-01T22:50:14.750Z,96913.06
2022-09-01T22:53:13.573Z,96897.44
2022-09-01T22:56:27.343Z,96894.03
2022-09-01T22:59:24.408Z,96890.63
2022-09-01T23:02:21.806Z,96900.25
2022-09-01T23:05:20.494Z,96898.88
2022-09-01T23:08:17.837Z,96891.63
2022-09-01T23:11:15.053Z,96897.88
2022-09-01T23:14:12.060Z,96893.94
2022-09-01T23:17:08.911Z,96887.94
2022-09-01T23:20:12.448Z,96891.56
2022-09-01T23:23:09.269Z,96887.50
2022-09-01T23:26:09.654Z,96886.88
2022-09-01T23:29:07.147Z,96895.63
2022-09-01T23:32:04.367Z,96900.53
2022-09-01T23:35:01.683Z,96892.84
2022-09-01T23:37:58.862Z,96889.41
2022-09-01T23:40:56.458Z,96888.97
2022-09-01T23:43:54.424Z,96886.72
2022-09-01T23:46:51.248Z,96882.47
2022-09-01T23:49:48.087Z,96885.28
2022-09-01T23:52:45.921Z,96881.38
2022-09-01T23:55:49.770Z,96878.63
2022-09-01T23:58:47.359Z,96880.03
